Time;durP1;ratioP1;P1;durP2;ratioP2;P2;SDS_P1;SDS_P2;PMS_P1;PMS_P2;Temp;Humidity;BMP_temperature;BMP_pressure;BME280_temperature;BME280_humidity;BME280_pressure;Samples;Min_cycle;Max_cycle;Signal;HPM_P1;HPM_P2
2021/11/29 00:00:20;;;;;;;19.83;13.93;;;4.70;99.90;;;;;;5055850;28;20611;-84
2021/11/29 00:02:54;;;;;;;20.47;13.53;;;4.50;99.90;;;;;;5054891;28;20424;-86
2021/11/29 00:05:21;;;;;;;17.50;12.70;;;4.50;99.90;;;;;;5060294;28;20424;-86
2021/11/29 00:07:47;;;;;;;21.77;14.17;;;4.20;99.90;;;;;;5042143;28;20458;-87
2021/11/29 00:10:13;;;;;;;20.70;12.63;;;4.30;99.90;;;;;;5075619;28;20427;-86
2021/11/29 00:12:39;;;;;;;19.03;12.73;;;4.40;99.90;;;;;;5075726;28;20459;-87
2021/11/29 00:15:10;;;;;;;18.30;12.10;;;4.30;99.90;;;;;;5057987;28;20423;-86
2021/11/29 00:17:36;;;;;;;22.17;14.43;;;4.30;99.90;;;;;;5057732;28;20555;-87
2021/11/29 00:20:05;;;;;;;21.07;14.80;;;4.20;99.90;;;;;;5059065;28;20486;-87
2021/11/29 00:22:31;;;;;;;19.00;12.23;;;4.30;99.90;;;;;;5023585;28;20428;-87
2021/11/29 00:24:57;;;;;;;21.40;14.07;;;4.40;99.90;;;;;;5045379;28;20519;-85
2021/11/29 00:27:22;;;;;;;17.73;12.10;;;4.20;99.90;;;;;;5015203;28;20462;-87
2021/11/29 00:29:48;;;;;;;20.13;13.30;;;4.20;99.90;;;;;;5058676;28;20231;-86
2021/11/29 00:32:14;;;;;;;22.73;13.03;;;4.10;99.90;;;;;;5062724;28;20200;-86
2021/11/29 00:34:40;;;;;;;19.10;12.30;;;4.20;99.90;;;;;;5042733;28;20192;-87
2021/11/29 00:37:06;;;;;;;15.67;12.10;;;3.90;99.90;;;;;;5041313;28;20205;-87
2021/11/29 00:39:32;;;;;;;17.03;12.30;;;3.90;99.90;;;;;;5024721;28;20478;-86
2021/11/29 00:41:58;;;;;;;20.67;12.30;;;4.00;99.90;;;;;;5041592;28;20189;-84
2021/11/29 00:44:23;;;;;;;19.77;12.30;;;3.90;99.90;;;;;;5074608;28;20419;-85
2021/11/29 00:46:49;;;;;;;16.63;11.80;;;3.90;99.90;;;;;;5072385;28;20205;-87
2021/11/29 00:49:15;;;;;;;19.13;12.40;;;3.80;99.90;;;;;;5057312;28;20192;-87
2021/11/29 00:51:40;;;;;;;17.63;12.00;;;3.90;99.90;;;;;;5057781;28;20193;-87
2021/11/29 00:54:06;;;;;;;18.47;12.60;;;3.70;99.90;;;;;;5069540;28;20262;-87
2021/11/29 00:56:33;;;;;;;14.13;9.70;;;3.80;99.90;;;;;;5031550;28;20691;-87
2021/11/29 00:58:58;;;;;;;17.27;11.83;;;3.60;99.90;;;;;;5040906;28;20220;-86
2021/11/29 01:01:24;;;;;;;16.27;10.13;;;3.90;99.90;;;;;;5015056;28;20419;-85
2021/11/29 01:03:50;;;;;;;14.03;10.77;;;3.70;99.90;;;;;;5040760;28;20227;-87
2021/11/29 01:06:16;;;;;;;17.13;11.50;;;3.70;99.90;;;;;;5040933;28;20438;-86
2021/11/29 01:08:42;;;;;;;16.10;10.97;;;3.70;99.90;;;;;;5040436;28;20443;-86
2021/11/29 01:11:09;;;;;;;17.60;12.00;;;3.80;99.90;;;;;;5053382;28;20185;-86
2021/11/29 01:13:35;;;;;;;16.90;10.80;;;3.50;99.90;;;;;;5055347;28;20184;-85
2021/11/29 01:16:01;;;;;;;14.43;9.90;;;3.60;99.90;;;;;;5047752;28;20979;-85
2021/11/29 01:18:27;;;;;;;14.90;9.70;;;3.40;99.90;;;;;;5040932;28;20435;-85
2021/11/29 01:20:53;;;;;;;14.67;9.73;;;3.60;99.90;;;;;;5041944;28;20419;-86
2021/11/29 01:23:20;;;;;;;17.30;10.07;;;3.20;99.90;;;;;;5039670;28;20188;-86
2021/11/29 01:25:46;;;;;;;12.50;8.90;;;3.50;99.90;;;;;;5049113;28;20417;-87
2021/11/29 01:28:13;;;;;;;15.37;10.10;;;3.40;99.90;;;;;;5055409;28;20446;-84
2021/11/29 01:30:38;;;;;;;23.73;9.37;;;3.50;99.90;;;;;;5032039;28;20200;-84
2021/11/29 01:33:05;;;;;;;13.97;9.70;;;3.20;99.90;;;;;;5032451;28;20850;-87
2021/11/29 01:35:32;;;;;;;12.60;7.90;;;3.20;99.90;;;;;;5054750;28;20184;-86
2021/11/29 01:37:58;;;;;;;11.80;8.93;;;3.30;99.90;;;;;;5055694;28;20481;-87
2021/11/29 01:40:25;;;;;;;18.00;9.10;;;3.30;99.90;;;;;;5057150;28;20988;-86
2021/11/29 01:43:03;;;;;;;15.30;7.67;;;3.20;99.90;;;;;;5041239;28;20193;-86
2021/11/29 01:45:31;;;;;;;8.60;7.50;;;3.20;99.90;;;;;;5057599;28;20403;-87
2021/11/29 01:47:56;;;;;;;12.90;7.27;;;3.20;99.90;;;;;;5045925;28;20439;-87
2021/11/29 01:50:23;;;;;;;11.83;7.20;;;3.30;99.90;;;;;;5027770;28;20432;-87
2021/11/29 01:52:49;;;;;;;11.20;6.60;;;3.40;99.90;;;;;;5020054;28;20189;-86
2021/11/29 01:55:17;;;;;;;12.03;7.00;;;3.30;99.90;;;;;;5055286;28;20522;-87
2021/11/29 01:57:42;;;;;;;8.10;6.40;;;3.30;99.90;;;;;;5043239;28;20443;-87
2021/11/29 02:00:14;;;;;;;9.83;7.33;;;3.30;99.90;;;;;;5043062;28;20465;-87
2021/11/29 02:02:41;;;;;;;10.23;7.13;;;3.30;99.90;;;;;;5057530;28;20870;-87
2021/11/29 02:05:07;;;;;;;9.30;6.40;;;3.30;99.90;;;;;;5059406;28;20499;-84
2021/11/29 02:07:34;;;;;;;9.10;6.37;;;3.40;99.90;;;;;;5049077;28;20527;-85
2021/11/29 02:10:03;;;;;;;10.50;6.70;;;3.30;99.90;;;;;;5069018;28;20455;-85
2021/11/29 02:12:29;;;;;;;10.60;6.70;;;3.50;99.90;;;;;;5060937;28;20443;-85
2021/11/29 02:14:54;;;;;;;9.03;6.10;;;3.40;99.90;;;;;;5060759;28;20427;-85
2021/11/29 02:17:20;;;;;;;9.23;6.60;;;3.40;99.90;;;;;;5078018;28;20690;-87
2021/11/29 02:19:47;;;;;;;9.90;6.60;;;3.40;99.90;;;;;;5077074;28;20220;-87
2021/11/29 02:22:13;;;;;;;13.63;6.30;;;3.50;99.90;;;;;;5057771;28;20920;-87
2021/11/29 02:24:39;;;;;;;9.93;5.57;;;3.50;99.90;;;;;;5065151;28;20427;-87
2021/11/29 02:27:06;;;;;;;10.73;6.57;;;3.40;99.90;;;;;;5024966;28;20494;-87
2021/11/29 02:29:34;;;;;;;6.70;5.90;;;3.20;99.90;;;;;;5051567;28;20415;-87
2021/11/29 02:32:00;;;;;;;10.43;7.03;;;3.40;99.90;;;;;;5073474;28;21234;-85
2021/11/29 02:34:28;;;;;;;9.97;5.97;;;3.50;99.90;;;;;;5043910;28;21085;-87
2021/11/29 02:36:57;;;;;;;10.13;6.50;;;3.20;99.90;;;;;;5056542;28;20435;-85
2021/11/29 02:39:23;;;;;;;11.83;7.10;;;3.10;99.90;;;;;;5048891;28;20546;-86
2021/11/29 02:41:50;;;;;;;10.43;6.77;;;3.30;99.90;;;;;;5053350;28;20425;-87
2021/11/29 02:44:17;;;;;;;10.57;6.30;;;3.00;99.90;;;;;;5053788;28;20502;-86
2021/11/29 02:46:43;;;;;;;7.00;5.77;;;3.20;99.90;;;;;;5042972;28;21168;-85
2021/11/29 02:49:12;;;;;;;11.10;7.73;;;3.00;99.90;;;;;;5056718;28;20420;-87
2021/11/29 02:51:53;;;;;;;9.20;7.50;;;3.10;99.90;;;;;;5059300;28;20420;-86
2021/11/29 02:54:30;;;;;;;9.03;6.50;;;3.30;99.90;;;;;;5060132;28;20450;-86
2021/11/29 02:57:00;;;;;;;9.47;6.60;;;3.30;99.90;;;;;;5060819;28;20447;-85
2021/11/29 02:59:29;;;;;;;7.60;6.50;;;3.20;99.90;;;;;;5044369;28;20566;-87
2021/11/29 03:01:57;;;;;;;7.93;6.77;;;3.30;99.90;;;;;;5077469;28;20435;-88
2021/11/29 03:04:26;;;;;;;9.23;6.83;;;3.30;99.90;;;;;;5045141;28;20830;-87
2021/11/29 03:06:55;;;;;;;7.90;6.20;;;3.20;99.90;;;;;;5045204;28;20442;-88
2021/11/29 03:09:21;;;;;;;9.77;6.60;;;3.40;99.90;;;;;;5077044;28;21141;-86
2021/11/29 03:11:47;;;;;;;7.87;7.07;;;3.20;99.90;;;;;;5060057;28;20419;-86
2021/11/29 03:14:13;;;;;;;7.90;5.60;;;3.30;99.90;;;;;;5077442;28;20410;-87
2021/11/29 03:16:39;;;;;;;8.73;6.20;;;3.30;99.90;;;;;;5042814;28;20447;-86
2021/11/29 03:19:06;;;;;;;8.70;6.50;;;3.20;99.90;;;;;;5026822;28;21079;-86
2021/11/29 03:21:32;;;;;;;8.83;6.77;;;3.20;99.90;;;;;;5022188;28;20807;-87
2021/11/29 03:24:02;;;;;;;11.13;7.47;;;3.20;99.90;;;;;;5076824;28;20427;-87
2021/11/29 03:26:29;;;;;;;7.57;6.07;;;3.30;99.90;;;;;;5058563;28;20443;-87
2021/11/29 03:28:57;;;;;;;11.53;6.47;;;3.40;99.90;;;;;;5053621;28;20505;-87
2021/11/29 03:31:25;;;;;;;9.37;5.77;;;3.30;99.90;;;;;;5055670;28;20435;-87
2021/11/29 03:33:57;;;;;;;9.10;6.27;;;3.40;99.90;;;;;;5061503;28;20411;-86
2021/11/29 03:36:24;;;;;;;8.30;5.80;;;3.00;99.90;;;;;;5027534;28;20478;-86
2021/11/29 03:38:51;;;;;;;8.37;6.13;;;3.20;99.90;;;;;;5024481;28;21018;-87
2021/11/29 03:41:16;;;;;;;12.83;6.60;;;3.40;99.90;;;;;;5076805;28;20416;-87
2021/11/29 03:43:42;;;;;;;7.80;6.80;;;3.10;99.90;;;;;;5076718;28;20834;-87
2021/11/29 03:46:08;;;;;;;9.23;6.23;;;3.20;99.90;;;;;;5059383;28;20201;-85
2021/11/29 03:48:35;;;;;;;7.67;6.53;;;3.20;99.90;;;;;;5057919;28;20185;-85
2021/11/29 03:51:01;;;;;;;9.70;6.07;;;3.10;99.90;;;;;;5043089;28;20428;-86
2021/11/29 03:53:27;;;;;;;12.60;6.67;;;3.20;99.90;;;;;;5026427;28;20905;-85
2021/11/29 03:55:52;;;;;;;8.60;6.37;;;3.10;99.90;;;;;;5058307;28;20435;-87
2021/11/29 03:58:18;;;;;;;7.67;5.80;;;3.20;99.90;;;;;;5027503;28;20456;-87
2021/11/29 04:00:44;;;;;;;8.50;6.40;;;3.40;99.90;;;;;;5043653;28;20209;-85
2021/11/29 04:03:13;;;;;;;9.70;6.40;;;3.60;99.90;;;;;;5080604;28;20176;-87
2021/11/29 04:05:39;;;;;;;8.67;6.00;;;3.50;99.90;;;;;;5060250;28;20443;-85
2021/11/29 04:08:05;;;;;;;7.87;6.27;;;3.30;99.90;;;;;;5029921;28;20420;-86
2021/11/29 04:10:31;;;;;;;6.63;5.73;;;3.60;99.90;;;;;;5047157;28;20424;-87
2021/11/29 04:12:56;;;;;;;7.53;5.90;;;3.30;99.90;;;;;;5043674;28;20481;-87
2021/11/29 04:15:22;;;;;;;7.93;5.50;;;3.70;99.90;;;;;;5076201;28;20188;-87
2021/11/29 04:17:48;;;;;;;7.30;6.43;;;3.50;99.90;;;;;;5075928;28;20350;-86
2021/11/29 04:20:15;;;;;;;9.73;6.20;;;3.50;99.90;;;;;;5075011;28;20240;-87
2021/11/29 04:22:45;;;;;;;6.43;5.83;;;3.60;99.90;;;;;;5040794;28;20460;-86
2021/11/29 04:25:14;;;;;;;8.90;5.50;;;3.50;99.90;;;;;;5033997;28;20440;-87
2021/11/29 04:27:42;;;;;;;7.87;5.53;;;3.20;99.90;;;;;;5068029;28;20530;-85
2021/11/29 04:30:14;;;;;;;5.53;5.00;;;3.00;99.90;;;;;;5057384;28;20434;-85
2021/11/29 04:32:40;;;;;;;6.73;5.10;;;3.30;99.90;;;;;;5058269;28;20445;-87
2021/11/29 04:35:07;;;;;;;7.17;5.67;;;3.30;99.90;;;;;;5067967;28;20511;-85
2021/11/29 04:37:33;;;;;;;8.33;5.20;;;3.20;99.90;;;;;;5022187;28;20847;-88
2021/11/29 04:39:59;;;;;;;8.20;5.30;;;3.20;99.90;;;;;;5057836;28;20463;-87
2021/11/29 04:42:24;;;;;;;5.40;4.90;;;3.20;99.90;;;;;;5054601;28;20451;-83
2021/11/29 04:44:50;;;;;;;5.73;5.23;;;3.30;99.90;;;;;;5038025;28;20216;-86
2021/11/29 04:47:16;;;;;;;7.43;5.30;;;3.40;99.90;;;;;;5058935;28;20222;-86
2021/11/29 04:49:41;;;;;;;7.37;4.90;;;3.20;99.90;;;;;;5052228;28;20447;-85
2021/11/29 04:52:08;;;;;;;6.47;5.20;;;3.10;99.90;;;;;;5006837;28;20197;-86
2021/11/29 04:54:34;;;;;;;6.13;5.07;;;3.30;99.90;;;;;;5052211;28;20654;-87
2021/11/29 04:56:59;;;;;;;6.37;4.87;;;3.00;99.90;;;;;;5041221;28;20472;-87
2021/11/29 04:59:25;;;;;;;8.37;5.53;;;2.90;99.90;;;;;;5033919;28;20271;-86
2021/11/29 05:01:51;;;;;;;10.33;5.57;;;3.20;99.90;;;;;;5031996;28;20194;-87
2021/11/29 05:04:16;;;;;;;5.10;4.60;;;3.20;99.90;;;;;;5025227;28;20185;-86
2021/11/29 05:06:42;;;;;;;5.63;4.93;;;2.80;99.90;;;;;;5061155;28;20197;-88
2021/11/29 05:09:12;;;;;;;6.00;5.30;;;3.10;99.90;;;;;;5032989;28;20185;-86
2021/11/29 05:11:37;;;;;;;7.53;5.47;;;3.00;99.90;;;;;;5065544;28;20543;-88
2021/11/29 05:14:03;;;;;;;6.60;4.90;;;2.90;99.90;;;;;;5050343;28;20416;-85
2021/11/29 05:16:29;;;;;;;5.73;4.97;;;3.00;99.90;;;;;;5083966;28;20189;-86
2021/11/29 05:18:55;;;;;;;5.43;4.90;;;3.10;99.90;;;;;;5045884;28;20240;-87
2021/11/29 05:21:21;;;;;;;7.40;5.37;;;3.20;99.90;;;;;;5043808;28;20479;-87
2021/11/29 05:23:48;;;;;;;6.40;5.37;;;3.00;99.90;;;;;;5060065;28;20442;-88
2021/11/29 05:26:20;;;;;;;8.53;5.63;;;3.00;99.90;;;;;;5059416;28;20428;-88
2021/11/29 05:28:47;;;;;;;8.30;5.00;;;3.20;99.90;;;;;;5056868;28;20450;-88
2021/11/29 05:31:13;;;;;;;7.17;5.20;;;3.30;99.90;;;;;;5057628;28;20959;-88
2021/11/29 05:33:39;;;;;;;5.10;4.60;;;3.10;99.90;;;;;;5056887;28;20418;-88
2021/11/29 05:36:05;;;;;;;7.00;5.50;;;3.00;99.90;;;;;;5041364;28;20446;-87
2021/11/29 05:38:31;;;;;;;8.60;6.17;;;3.00;99.90;;;;;;5041344;28;20665;-87
2021/11/29 05:40:56;;;;;;;6.00;5.40;;;3.20;99.90;;;;;;5024280;28;20435;-89
2021/11/29 05:43:22;;;;;;;7.87;4.97;;;3.00;99.90;;;;;;5039109;28;20913;-88
2021/11/29 05:45:48;;;;;;;5.93;5.33;;;3.40;99.90;;;;;;5056218;28;20276;-86
2021/11/29 05:48:13;;;;;;;6.83;4.80;;;3.40;99.90;;;;;;5030568;28;20208;-89
2021/11/29 05:50:39;;;;;;;9.93;4.60;;;3.10;99.90;;;;;;5074513;28;20197;-88
2021/11/29 05:53:05;;;;;;;6.03;5.23;;;3.00;99.90;;;;;;5072646;28;20193;-88
2021/11/29 05:55:31;;;;;;;6.53;5.53;;;3.10;99.90;;;;;;5044303;28;20189;-88
2021/11/29 05:57:57;;;;;;;6.33;4.63;;;2.90;99.90;;;;;;5052709;28;20953;-88
2021/11/29 06:00:24;;;;;;;7.23;5.47;;;3.10;99.90;;;;;;5030906;28;20547;-84
2021/11/29 06:02:50;;;;;;;4.43;4.03;;;3.10;99.90;;;;;;5055446;28;20254;-84
2021/11/29 06:05:17;;;;;;;6.40;5.50;;;3.00;99.90;;;;;;5056581;28;20419;-86
2021/11/29 06:07:43;;;;;;;6.40;4.60;;;3.20;99.90;;;;;;5073143;28;20446;-83
2021/11/29 06:10:10;;;;;;;6.73;5.00;;;3.40;99.90;;;;;;5026702;28;21212;-86
2021/11/29 06:12:37;;;;;;;5.07;4.57;;;3.40;99.90;;;;;;5049032;28;20425;-82
2021/11/29 06:15:03;;;;;;;6.20;5.07;;;3.00;99.90;;;;;;5068006;28;20422;-85
2021/11/29 06:17:29;;;;;;;6.30;5.50;;;3.10;99.90;;;;;;5035672;28;20448;-82
2021/11/29 06:19:55;;;;;;;5.80;5.30;;;3.10;99.90;;;;;;5014390;28;20464;-85
2021/11/29 06:22:20;;;;;;;5.27;4.77;;;3.00;99.90;;;;;;5038906;28;20268;-84
2021/11/29 06:24:46;;;;;;;5.67;4.93;;;2.90;99.90;;;;;;5039022;28;20232;-84
2021/11/29 06:27:12;;;;;;;12.27;6.00;;;3.20;99.90;;;;;;5035819;28;20217;-82
2021/11/29 06:29:38;;;;;;;4.93;4.37;;;3.10;99.90;;;;;;5057857;28;20591;-84
2021/11/29 06:32:04;;;;;;;7.90;5.30;;;3.20;99.90;;;;;;5064340;28;20432;-85
2021/11/29 06:34:30;;;;;;;7.03;5.10;;;3.10;99.90;;;;;;5053383;28;20466;-83
2021/11/29 06:36:58;;;;;;;5.10;4.70;;;3.10;99.90;;;;;;5041850;28;20436;-83
2021/11/29 06:39:23;;;;;;;5.07;4.67;;;3.10;99.90;;;;;;5058594;28;20204;-86
2021/11/29 06:41:49;;;;;;;5.37;4.33;;;3.10;99.90;;;;;;5035060;28;20860;-84
2021/11/29 06:44:15;;;;;;;6.20;4.43;;;3.00;99.90;;;;;;5057849;28;20184;-85
2021/11/29 06:46:42;;;;;;;5.97;4.77;;;3.10;99.90;;;;;;5066229;28;20443;-85
2021/11/29 06:49:07;;;;;;;5.33;4.60;;;3.00;99.90;;;;;;5057169;28;20425;-84
2021/11/29 06:51:34;;;;;;;5.47;4.33;;;3.30;99.90;;;;;;5021953;28;20425;-86
2021/11/29 06:54:00;;;;;;;7.67;4.73;;;3.30;99.90;;;;;;5074358;28;20204;-85
2021/11/29 06:56:26;;;;;;;10.60;5.03;;;3.00;99.90;;;;;;5035095;28;20468;-83
2021/11/29 06:58:52;;;;;;;6.40;4.83;;;3.30;99.90;;;;;;5069066;28;20436;-84
2021/11/29 07:01:18;;;;;;;4.83;4.43;;;3.10;99.90;;;;;;5046607;28;20776;-85
2021/11/29 07:03:44;;;;;;;4.93;4.43;;;3.20;99.90;;;;;;5031820;28;20193;-83
2021/11/29 07:06:11;;;;;;;6.60;4.73;;;3.50;99.90;;;;;;5033919;28;20206;-85
2021/11/29 07:08:37;;;;;;;4.80;4.30;;;3.40;99.90;;;;;;5069275;28;20419;-85
2021/11/29 07:11:03;;;;;;;5.27;4.77;;;3.30;99.90;;;;;;5033031;28;20489;-85
2021/11/29 07:13:29;;;;;;;5.60;4.60;;;3.40;99.90;;;;;;5072293;28;20447;-82
2021/11/29 07:15:55;;;;;;;5.47;4.30;;;3.10;99.90;;;;;;5072246;28;20431;-83
2021/11/29 07:18:21;;;;;;;5.63;4.67;;;2.90;99.90;;;;;;5055629;28;20415;-82
2021/11/29 07:20:47;;;;;;;7.70;4.40;;;3.00;99.90;;;;;;5054982;28;21014;-82
2021/11/29 07:23:13;;;;;;;6.40;5.63;;;2.90;99.90;;;;;;5048128;28;20424;-83
2021/11/29 07:25:39;;;;;;;5.90;5.30;;;3.00;99.90;;;;;;5053868;28;20940;-84
2021/11/29 07:28:05;;;;;;;6.47;5.87;;;3.30;99.90;;;;;;5051788;28;20474;-84
2021/11/29 07:30:31;;;;;;;6.20;5.40;;;3.30;99.90;;;;;;5035016;28;20201;-84
2021/11/29 07:32:57;;;;;;;5.90;5.40;;;3.20;99.90;;;;;;5058483;28;20454;-85
2021/11/29 07:35:26;;;;;;;5.37;4.87;;;3.20;99.90;;;;;;5074679;28;20197;-82
2021/11/29 07:37:52;;;;;;;7.27;5.60;;;3.00;99.90;;;;;;5047493;28;20454;-83
2021/11/29 07:40:19;;;;;;;9.30;6.10;;;3.10;99.90;;;;;;5047339;28;20474;-86
2021/11/29 07:42:45;;;;;;;8.00;6.13;;;3.10;99.90;;;;;;5065665;28;20447;-83
2021/11/29 07:45:12;;;;;;;8.10;5.53;;;3.00;99.90;;;;;;5076898;28;20407;-83
2021/11/29 07:47:43;;;;;;;6.00;5.40;;;3.20;99.90;;;;;;5040099;28;20436;-85
2021/11/29 07:50:15;;;;;;;5.40;4.90;;;3.30;99.90;;;;;;5036268;28;20428;-83
2021/11/29 07:52:42;;;;;;;8.27;5.97;;;3.40;99.90;;;;;;5061024;28;20423;-84
2021/11/29 07:55:11;;;;;;;7.77;6.23;;;3.20;99.90;;;;;;5058677;28;20463;-84
2021/11/29 07:57:38;;;;;;;7.30;6.63;;;3.10;99.90;;;;;;5065351;28;20619;-85
2021/11/29 08:00:10;;;;;;;6.60;5.90;;;3.20;99.90;;;;;;5071442;28;20451;-84
2021/11/29 08:02:36;;;;;;;7.70;6.00;;;3.20;99.90;;;;;;5047585;28;20925;-83
2021/11/29 08:05:02;;;;;;;6.97;6.20;;;3.30;99.90;;;;;;5042065;28;20458;-85
2021/11/29 08:07:29;;;;;;;6.23;5.70;;;3.00;99.90;;;;;;5060071;28;20443;-83
2021/11/29 08:09:54;;;;;;;6.93;6.23;;;3.30;99.90;;;;;;5028400;28;20419;-85
2021/11/29 08:12:20;;;;;;;7.33;5.73;;;3.00;99.90;;;;;;5052693;28;20444;-85
2021/11/29 08:14:46;;;;;;;8.40;5.80;;;3.30;99.90;;;;;;5040660;28;20185;-83
2021/11/29 08:17:11;;;;;;;5.60;5.10;;;3.10;99.90;;;;;;5066942;28;20687;-86
2021/11/29 08:19:37;;;;;;;7.60;5.93;;;3.50;99.90;;;;;;5053889;28;20697;-86
2021/11/29 08:22:03;;;;;;;6.90;5.50;;;3.40;99.90;;;;;;5052983;28;20443;-84
2021/11/29 08:24:29;;;;;;;6.50;5.20;;;3.20;99.90;;;;;;5054008;28;20193;-83
2021/11/29 08:26:54;;;;;;;5.30;4.57;;;3.40;99.90;;;;;;5044080;28;20418;-84
2021/11/29 08:29:21;;;;;;;7.33;5.40;;;3.20;99.90;;;;;;5041958;28;20272;-86
2021/11/29 08:31:46;;;;;;;5.53;5.13;;;3.40;99.90;;;;;;5061039;28;20280;-81
2021/11/29 08:34:13;;;;;;;5.50;4.97;;;3.20;99.90;;;;;;5048807;28;20439;-82
2021/11/29 08:36:39;;;;;;;6.93;4.83;;;3.30;99.90;;;;;;5069562;28;20216;-85
2021/11/29 08:39:06;;;;;;;5.80;5.30;;;3.20;99.90;;;;;;5059277;28;20455;-85
2021/11/29 08:41:32;;;;;;;6.23;5.20;;;3.40;99.90;;;;;;5044729;28;20434;-83
2021/11/29 08:43:58;;;;;;;7.10;6.10;;;3.30;99.90;;;;;;5054057;28;20905;-84
2021/11/29 08:46:24;;;;;;;8.43;6.67;;;3.10;99.90;;;;;;5073647;28;20445;-84
2021/11/29 08:48:50;;;;;;;8.97;6.17;;;3.30;99.90;;;;;;5060594;28;20412;-84
2021/11/29 08:51:17;;;;;;;10.10;5.80;;;3.10;99.90;;;;;;5073904;28;20189;-86
2021/11/29 08:53:44;;;;;;;7.53;6.23;;;3.30;99.90;;;;;;5026924;28;20921;-83
2021/11/29 08:56:11;;;;;;;7.90;6.30;;;3.40;99.90;;;;;;5033993;28;20874;-85
2021/11/29 08:58:36;;;;;;;6.73;6.07;;;3.30;99.90;;;;;;5070185;28;20408;-84
2021/11/29 09:01:03;;;;;;;10.33;6.73;;;3.50;99.90;;;;;;5034750;28;20471;-86
2021/11/29 09:03:29;;;;;;;7.57;6.83;;;3.40;99.90;;;;;;5050246;28;20415;-86
2021/11/29 09:05:55;;;;;;;9.27;7.07;;;3.40;99.90;;;;;;5049034;28;20502;-83
2021/11/29 09:08:21;;;;;;;10.17;8.40;;;3.60;99.90;;;;;;5040483;28;20181;-85
2021/11/29 09:10:50;;;;;;;8.70;7.80;;;3.50;99.90;;;;;;5043667;28;20411;-86
2021/11/29 09:13:16;;;;;;;10.13;8.07;;;3.50;99.90;;;;;;5038163;28;20185;-85
2021/11/29 09:15:44;;;;;;;8.07;7.27;;;3.60;99.90;;;;;;5019968;28;20420;-84
2021/11/29 09:18:11;;;;;;;9.03;8.13;;;3.70;99.90;;;;;;5052980;28;20427;-84
2021/11/29 09:20:39;;;;;;;12.50;9.20;;;3.60;99.90;;;;;;5048469;28;20486;-85
2021/11/29 09:23:06;;;;;;;8.87;7.93;;;3.50;99.90;;;;;;5051406;28;20406;-85
2021/11/29 09:25:40;;;;;;;10.77;8.07;;;3.40;99.90;;;;;;5047474;28;20484;-86
2021/11/29 09:28:06;;;;;;;10.30;9.10;;;3.60;99.90;;;;;;5037053;28;20792;-86
2021/11/29 09:30:32;;;;;;;11.27;9.30;;;3.70;99.90;;;;;;5035630;28;20430;-84
2021/11/29 09:32:58;;;;;;;14.40;8.90;;;3.60;99.90;;;;;;5053375;28;20444;-84
2021/11/29 09:35:23;;;;;;;11.00;9.60;;;3.70;99.90;;;;;;5012743;28;21009;-83
2021/11/29 09:37:50;;;;;;;11.90;8.87;;;3.50;99.90;;;;;;5070693;28;20789;-84
2021/11/29 09:40:20;;;;;;;10.13;8.87;;;3.80;99.90;;;;;;5062605;28;20204;-85
2021/11/29 09:42:46;;;;;;;14.93;10.57;;;3.60;99.90;;;;;;5033350;28;20490;-84
2021/11/29 09:45:13;;;;;;;15.83;11.33;;;3.70;99.90;;;;;;5072638;28;20898;-86
2021/11/29 09:47:40;;;;;;;12.47;11.10;;;3.60;99.90;;;;;;5056200;28;21115;-85
2021/11/29 09:50:07;;;;;;;14.47;11.23;;;3.60;99.90;;;;;;5046507;28;20413;-86
2021/11/29 09:52:33;;;;;;;13.10;11.70;;;3.60;99.90;;;;;;5072996;28;20419;-84
2021/11/29 09:54:59;;;;;;;13.87;12.40;;;3.70;99.90;;;;;;5012141;28;20425;-86
2021/11/29 09:57:24;;;;;;;14.70;11.87;;;3.50;99.90;;;;;;5036150;28;20542;-85
2021/11/29 09:59:50;;;;;;;16.40;12.30;;;3.50;99.90;;;;;;5053941;28;20213;-82
2021/11/29 10:02:16;;;;;;;13.07;11.67;;;3.30;99.90;;;;;;5066961;28;20184;-85
2021/11/29 10:04:47;;;;;;;17.03;13.10;;;3.50;99.90;;;;;;5044781;28;20540;-84
2021/11/29 10:07:32;;;;;;;15.47;13.83;;;3.60;99.90;;;;;;5054495;28;20201;-85
2021/11/29 10:10:27;;;;;;;17.00;13.73;;;3.50;99.90;;;;;;5059187;28;20744;-84
2021/11/29 10:12:58;;;;;;;17.80;14.73;;;3.70;99.90;;;;;;5036390;28;20496;-86
2021/11/29 10:15:28;;;;;;;20.00;14.50;;;3.60;99.90;;;;;;5050989;28;20451;-85
2021/11/29 10:18:14;;;;;;;20.30;15.37;;;3.50;99.90;;;;;;5067962;28;20819;-84
2021/11/29 10:21:06;;;;;;;18.50;14.40;;;3.80;99.90;;;;;;5068909;28;20478;-84
2021/11/29 10:23:48;;;;;;;21.10;15.70;;;3.50;99.90;;;;;;5058609;28;20415;-84
2021/11/29 10:26:16;;;;;;;20.13;16.60;;;3.70;99.90;;;;;;5060733;28;20440;-85
2021/11/29 10:28:45;;;;;;;22.23;15.70;;;3.80;99.90;;;;;;5064611;28;20441;-85
2021/11/29 10:31:17;;;;;;;22.77;17.23;;;3.70;99.90;;;;;;5071918;28;20454;-86
2021/11/29 10:33:48;;;;;;;24.13;17.73;;;3.50;99.90;;;;;;5062882;28;21055;-86
2021/11/29 10:36:15;;;;;;;29.20;18.90;;;3.80;99.90;;;;;;5052474;28;20462;-86
2021/11/29 10:38:42;;;;;;;21.83;17.90;;;3.70;99.90;;;;;;5045505;28;20420;-84
2021/11/29 10:41:10;;;;;;;23.90;17.97;;;3.80;99.90;;;;;;5048464;28;20771;-84
2021/11/29 10:43:41;;;;;;;23.83;18.00;;;3.70;99.90;;;;;;5049046;28;20458;-84
2021/11/29 10:46:16;;;;;;;24.73;19.43;;;3.80;99.90;;;;;;5073693;28;20534;-85
2021/11/29 10:48:42;;;;;;;24.40;18.60;;;4.00;99.90;;;;;;5060720;28;20909;-85
2021/11/29 10:51:10;;;;;;;23.37;18.30;;;3.90;99.90;;;;;;5032232;28;20557;-86
2021/11/29 10:53:53;;;;;;;25.00;18.80;;;4.00;99.90;;;;;;5044794;28;20193;-84
2021/11/29 10:56:20;;;;;;;17.70;14.83;;;3.90;99.90;;;;;;5060438;28;20490;-85
2021/11/29 10:58:48;;;;;;;19.90;14.97;;;3.90;99.90;;;;;;5051810;28;20853;-84
2021/11/29 11:01:16;;;;;;;21.63;15.70;;;3.90;99.90;;;;;;5040698;28;20584;-84
2021/11/29 11:03:56;;;;;;;24.47;18.80;;;4.10;99.90;;;;;;5059712;28;20438;-83
2021/11/29 11:06:53;;;;;;;20.97;15.87;;;3.90;99.90;;;;;;5085048;28;20442;-86
2021/11/29 11:09:28;;;;;;;20.40;15.33;;;4.00;99.90;;;;;;5039658;28;20427;-85
2021/11/29 11:12:02;;;;;;;19.60;15.00;;;4.20;99.90;;;;;;5046207;28;20514;-86
2021/11/29 11:14:40;;;;;;;18.27;14.17;;;4.10;99.90;;;;;;5058602;28;20454;-87
2021/11/29 11:17:07;;;;;;;20.30;14.33;;;4.20;99.90;;;;;;5074820;28;20474;-86
2021/11/29 11:19:36;;;;;;;19.00;14.37;;;4.00;99.90;;;;;;5064159;28;20460;-81
2021/11/29 11:22:12;;;;;;;13.60;11.80;;;4.20;99.90;;;;;;5058224;28;20887;-83
2021/11/29 11:24:41;;;;;;;16.27;12.87;;;4.40;99.90;;;;;;5075098;28;20423;-84
2021/11/29 11:27:07;;;;;;;13.07;11.70;;;4.30;99.90;;;;;;5052547;28;20443;-84
2021/11/29 11:29:41;;;;;;;11.97;10.60;;;4.30;99.90;;;;;;5074342;28;20446;-86
2021/11/29 11:32:38;;;;;;;16.53;12.20;;;4.30;99.90;;;;;;5039944;28;21194;-86
2021/11/29 11:35:13;;;;;;;13.60;11.00;;;4.40;99.90;;;;;;5050631;28;20426;-84
2021/11/29 11:37:42;;;;;;;13.50;12.10;;;4.50;99.90;;;;;;5077001;28;20478;-84
2021/11/29 11:40:29;;;;;;;16.17;12.40;;;4.60;99.90;;;;;;5064276;28;20489;-86
2021/11/29 11:42:55;;;;;;;15.60;12.10;;;4.50;99.90;;;;;;5047098;28;20431;-86
2021/11/29 11:45:24;;;;;;;16.77;12.47;;;4.40;99.90;;;;;;5056084;28;20788;-84
2021/11/29 11:47:52;;;;;;;14.50;11.90;;;4.40;99.90;;;;;;5038762;28;20440;-84
2021/11/29 11:50:23;;;;;;;14.73;12.33;;;4.20;99.90;;;;;;5060560;28;20426;-84
2021/11/29 11:52:51;;;;;;;13.97;11.57;;;4.20;99.90;;;;;;5057149;28;20426;-84
2021/11/29 11:55:19;;;;;;;14.57;12.47;;;4.50;99.90;;;;;;5060459;28;20546;-85
2021/11/29 11:57:49;;;;;;;17.07;11.90;;;4.50;99.90;;;;;;5028767;28;20471;-85
2021/11/29 12:00:17;;;;;;;12.90;10.90;;;4.30;99.90;;;;;;5058484;28;20468;-84
2021/11/29 12:03:05;;;;;;;13.50;10.80;;;4.50;99.90;;;;;;5059392;28;20506;-85
2021/11/29 12:05:48;;;;;;;13.80;9.57;;;4.40;99.90;;;;;;5030894;28;20415;-86
2021/11/29 12:08:47;;;;;;;11.83;10.20;;;4.70;99.90;;;;;;5082991;28;20502;-85
2021/11/29 12:11:22;;;;;;;11.27;10.10;;;4.50;99.90;;;;;;5055408;28;20424;-84
2021/11/29 12:13:49;;;;;;;12.83;10.33;;;4.60;99.90;;;;;;5065661;28;20434;-84
2021/11/29 12:16:38;;;;;;;11.80;9.80;;;4.50;99.90;;;;;;5074032;28;20436;-85
2021/11/29 12:19:05;;;;;;;13.00;10.47;;;4.60;99.90;;;;;;5057410;28;20415;-84
2021/11/29 12:21:39;;;;;;;12.97;10.53;;;4.70;99.90;;;;;;5074347;28;20811;-84
2021/11/29 12:24:13;;;;;;;10.73;9.73;;;4.60;99.90;;;;;;5058592;28;20448;-84
2021/11/29 12:26:45;;;;;;;11.90;10.70;;;4.70;99.90;;;;;;5028627;28;20839;-84
2021/11/29 12:29:23;;;;;;;13.20;10.33;;;4.70;99.90;;;;;;5056656;28;20442;-84
2021/11/29 12:31:48;;;;;;;11.70;10.33;;;4.80;99.90;;;;;;5048216;28;20440;-84
2021/11/29 12:34:14;;;;;;;11.80;10.60;;;4.70;99.90;;;;;;5057847;28;20419;-84
2021/11/29 12:36:58;;;;;;;11.53;9.57;;;4.40;99.90;;;;;;5056470;28;20370;-84
2021/11/29 12:39:42;;;;;;;10.07;8.83;;;4.50;99.90;;;;;;5074983;28;20640;-85
2021/11/29 12:42:22;;;;;;;8.03;7.10;;;4.70;99.90;;;;;;5046797;28;20423;-84
2021/11/29 12:45:14;;;;;;;10.70;6.70;;;4.80;99.90;;;;;;5056559;28;21024;-84
2021/11/29 12:47:55;;;;;;;7.40;6.40;;;4.80;99.90;;;;;;5055547;28;20443;-86
2021/11/29 12:50:51;;;;;;;8.07;6.33;;;4.80;99.90;;;;;;5074941;28;20411;-86
2021/11/29 12:53:26;;;;;;;8.27;6.10;;;4.60;99.90;;;;;;5057442;28;20512;-86